Time;durP1;ratioP1;P1;durP2;ratioP2;P2;SDS_P1;SDS_P2;PMS_P1;PMS_P2;Temp;Humidity;BMP_temperature;BMP_pressure;BME280_temperature;BME280_humidity;BME280_pressure;Samples;Min_cycle;Max_cycle;Signal;HPM_P1;HPM_P2
2023/10/15 00:00:24;;;;;;;8.03;4.27;;;7.40;99.90;;;;;;5136016;27;20218;-68
2023/10/15 00:02:52;;;;;;;5.87;4.13;;;7.40;99.90;;;;;;5136088;27;20196;-68
2023/10/15 00:05:20;;;;;;;9.23;4.70;;;7.30;99.90;;;;;;5135951;27;20248;-69
2023/10/15 00:07:50;;;;;;;7.20;4.23;;;7.20;99.90;;;;;;5135753;27;20191;-69
2023/10/15 00:10:18;;;;;;;7.97;4.40;;;7.10;99.90;;;;;;5135912;27;20191;-69
2023/10/15 00:12:47;;;;;;;6.00;4.40;;;7.10;99.90;;;;;;5135591;27;20256;-69
2023/10/15 00:15:18;;;;;;;8.87;4.33;;;7.00;99.90;;;;;;5134922;27;20214;-69
2023/10/15 00:17:46;;;;;;;9.73;4.27;;;7.00;99.90;;;;;;5135793;27;20223;-69
2023/10/15 00:20:16;;;;;;;10.37;4.67;;;6.90;99.90;;;;;;5135689;27;20228;-69
2023/10/15 00:22:43;;;;;;;9.53;5.20;;;6.80;99.90;;;;;;5135578;27;20289;-69
2023/10/15 00:25:14;;;;;;;8.90;4.93;;;6.70;99.90;;;;;;5135446;27;20191;-69
2023/10/15 00:27:41;;;;;;;7.73;4.60;;;6.70;99.90;;;;;;5135639;27;20191;-69
2023/10/15 00:30:12;;;;;;;15.80;5.20;;;6.60;99.90;;;;;;5135511;27;20271;-70
2023/10/15 00:32:41;;;;;;;6.93;4.87;;;6.60;99.90;;;;;;5135528;27;20248;-69
2023/10/15 00:35:08;;;;;;;9.37;5.07;;;6.50;99.90;;;;;;5135337;27;20577;-70
2023/10/15 00:37:40;;;;;;;11.90;5.13;;;6.40;99.90;;;;;;5135274;27;20633;-70
2023/10/15 00:40:09;;;;;;;11.50;5.60;;;6.30;99.90;;;;;;5135555;27;20195;-69
2023/10/15 00:42:39;;;;;;;8.63;5.17;;;6.30;99.90;;;;;;5135327;27;20195;-70
2023/10/15 00:45:07;;;;;;;11.50;5.57;;;6.30;99.90;;;;;;5135092;27;20226;-70
2023/10/15 00:47:35;;;;;;;11.53;5.77;;;6.30;99.90;;;;;;5134994;27;20230;-70
2023/10/15 00:50:07;;;;;;;8.00;5.80;;;6.20;99.90;;;;;;5134949;27;20203;-70
2023/10/15 00:52:37;;;;;;;11.77;5.57;;;6.20;99.90;;;;;;5134822;27;20616;-69
2023/10/15 00:55:06;;;;;;;7.43;5.20;;;6.00;99.90;;;;;;5135077;27;20226;-69
2023/10/15 00:57:41;;;;;;;11.43;5.50;;;6.00;99.90;;;;;;5134872;27;20191;-69
2023/10/15 01:00:36;;;;;;;9.90;5.77;;;5.80;99.90;;;;;;5134843;27;20199;-69
2023/10/15 01:03:03;;;;;;;9.03;5.60;;;5.80;99.90;;;;;;5134684;27;20642;-69
2023/10/15 01:05:33;;;;;;;12.27;6.03;;;5.80;99.90;;;;;;5134945;27;20238;-69
2023/10/15 01:08:03;;;;;;;10.17;5.57;;;5.80;99.90;;;;;;5134761;27;20692;-69
2023/10/15 01:10:36;;;;;;;10.90;5.63;;;5.90;99.90;;;;;;5134463;27;20222;-69
2023/10/15 01:13:15;;;;;;;16.70;6.20;;;6.00;99.90;;;;;;5134548;27;20255;-69
2023/10/15 01:15:46;;;;;;;13.13;6.10;;;6.00;99.90;;;;;;5134704;27;20201;-69
2023/10/15 01:18:12;;;;;;;11.90;5.60;;;6.00;99.90;;;;;;5134640;27;20202;-69
2023/10/15 01:20:42;;;;;;;14.57;7.53;;;6.00;99.90;;;;;;5134458;27;20259;-68
2023/10/15 01:23:09;;;;;;;8.27;6.00;;;5.90;99.90;;;;;;5134299;27;20244;-69
2023/10/15 01:25:45;;;;;;;12.90;6.77;;;5.90;99.90;;;;;;5134228;27;20207;-69
2023/10/15 01:28:13;;;;;;;10.53;6.30;;;5.90;99.90;;;;;;5134639;27;20259;-69
2023/10/15 01:30:41;;;;;;;13.37;6.40;;;5.90;99.90;;;;;;5134510;27;20250;-69
2023/10/15 01:33:10;;;;;;;12.37;6.43;;;5.70;99.90;;;;;;5134174;27;20241;-69
2023/10/15 01:35:38;;;;;;;13.10;7.10;;;5.60;99.90;;;;;;5134199;27;20195;-69
2023/10/15 01:38:17;;;;;;;14.77;6.90;;;5.70;99.90;;;;;;5134125;27;20302;-69
2023/10/15 01:40:45;;;;;;;15.30;6.67;;;5.60;99.90;;;;;;5134324;27;20218;-69
2023/10/15 01:43:14;;;;;;;11.20;6.73;;;5.60;99.90;;;;;;5134232;27;20286;-69
2023/10/15 01:45:47;;;;;;;16.07;7.10;;;5.60;99.90;;;;;;5134058;27;20244;-69
2023/10/15 01:48:18;;;;;;;13.50;6.90;;;5.50;99.90;;;;;;5134066;27;20223;-70
2023/10/15 01:50:49;;;;;;;14.83;7.13;;;5.50;99.90;;;;;;5134122;27;20234;-70
2023/10/15 01:53:16;;;;;;;11.80;6.87;;;5.40;99.90;;;;;;5134139;27;20202;-69
2023/10/15 01:55:53;;;;;;;14.67;6.63;;;5.40;99.90;;;;;;5133939;27;20206;-69
2023/10/15 01:58:24;;;;;;;15.97;6.90;;;5.50;99.90;;;;;;5133959;27;20294;-69
2023/10/15 02:00:53;;;;;;;14.90;7.53;;;5.50;99.90;;;;;;5134067;27;20210;-69
2023/10/15 02:03:19;;;;;;;14.87;5.87;;;5.50;99.90;;;;;;5133997;27;20192;-69
2023/10/15 02:05:46;;;;;;;9.57;6.57;;;5.50;99.90;;;;;;5133867;27;20251;-69
2023/10/15 02:08:16;;;;;;;10.90;6.70;;;5.50;99.90;;;;;;5133856;27;20703;-69
2023/10/15 02:10:46;;;;;;;13.87;7.33;;;5.40;99.90;;;;;;5133531;27;20211;-70
2023/10/15 02:13:15;;;;;;;12.60;7.00;;;5.20;99.90;;;;;;5133984;27;20195;-70
2023/10/15 02:15:44;;;;;;;9.90;6.73;;;5.10;99.90;;;;;;5133855;28;20191;-69
2023/10/15 02:18:14;;;;;;;16.33;7.33;;;5.10;99.90;;;;;;5133876;28;20303;-69
2023/10/15 02:20:47;;;;;;;13.47;7.70;;;5.20;99.90;;;;;;5134166;28;20195;-69
2023/10/15 02:23:15;;;;;;;9.87;6.47;;;5.20;99.90;;;;;;5133894;28;20203;-70
2023/10/15 02:25:46;;;;;;;18.23;7.40;;;5.20;99.90;;;;;;5133872;28;20195;-70
2023/10/15 02:28:16;;;;;;;13.67;7.47;;;5.20;99.90;;;;;;5133733;28;20206;-70
2023/10/15 02:30:47;;;;;;;11.50;7.13;;;5.10;99.90;;;;;;5133310;28;20726;-69
2023/10/15 02:33:16;;;;;;;17.07;6.73;;;5.20;99.90;;;;;;5133290;28;20765;-69
2023/10/15 02:35:45;;;;;;;12.03;6.93;;;5.10;99.90;;;;;;5133720;28;20191;-69
2023/10/15 02:38:13;;;;;;;12.70;7.10;;;5.20;99.90;;;;;;5136288;27;20202;-70
2023/10/15 02:40:57;;;;;;;14.87;7.00;;;5.10;99.90;;;;;;5137465;27;20604;-68
2023/10/15 02:43:26;;;;;;;17.53;7.40;;;5.20;99.90;;;;;;5137686;27;20222;-70
2023/10/15 02:45:54;;;;;;;12.60;6.97;;;5.00;99.90;;;;;;5137524;27;20199;-69
2023/10/15 02:48:21;;;;;;;11.17;7.23;;;5.10;99.90;;;;;;5137431;27;20611;-70
2023/10/15 02:50:58;;;;;;;10.93;7.17;;;5.00;99.90;;;;;;5137135;27;20722;-69
2023/10/15 02:53:27;;;;;;;11.77;7.30;;;4.90;99.90;;;;;;5137694;27;20290;-69
2023/10/15 02:55:57;;;;;;;14.70;7.70;;;4.80;99.90;;;;;;5137049;27;20624;-68
2023/10/15 02:58:27;;;;;;;19.23;7.83;;;4.70;99.90;;;;;;5137250;27;20195;-69
2023/10/15 03:00:59;;;;;;;15.93;7.50;;;4.90;99.90;;;;;;5137163;27;20282;-69
2023/10/15 03:03:33;;;;;;;13.57;7.07;;;4.80;99.90;;;;;;5137128;27;20231;-69
2023/10/15 03:06:00;;;;;;;14.00;6.73;;;4.80;99.90;;;;;;5137240;27;20198;-69
2023/10/15 03:08:31;;;;;;;12.63;7.30;;;4.80;99.90;;;;;;5137210;27;20206;-69
2023/10/15 03:11:11;;;;;;;15.00;7.10;;;4.80;99.90;;;;;;5136971;27;20230;-70
2023/10/15 03:13:49;;;;;;;13.80;7.20;;;4.80;99.90;;;;;;5137055;27;20206;-69
2023/10/15 03:16:18;;;;;;;13.10;7.20;;;4.80;99.90;;;;;;5137136;27;20203;-69
2023/10/15 03:18:48;;;;;;;16.13;7.60;;;4.70;99.90;;;;;;5137022;27;20199;-69
2023/10/15 03:21:19;;;;;;;13.70;7.97;;;4.70;99.90;;;;;;5136823;27;20194;-68
2023/10/15 03:23:49;;;;;;;14.73;7.47;;;4.70;99.90;;;;;;5136821;27;20298;-68
2023/10/15 03:26:18;;;;;;;9.93;7.30;;;4.70;99.90;;;;;;5136643;27;20198;-69
2023/10/15 03:28:46;;;;;;;13.30;7.30;;;4.70;99.90;;;;;;5136884;27;20226;-68
2023/10/15 03:31:15;;;;;;;12.03;7.50;;;4.80;99.90;;;;;;5136414;27;20215;-69
2023/10/15 03:34:12;;;;;;;16.07;8.30;;;4.80;99.90;;;;;;5136264;27;20223;-69
2023/10/15 03:36:43;;;;;;;14.70;7.47;;;4.70;99.90;;;;;;5136244;27;20557;-69
2023/10/15 03:39:15;;;;;;;14.60;7.80;;;4.70;99.90;;;;;;5136507;27;20202;-69
2023/10/15 03:41:42;;;;;;;15.10;7.30;;;4.70;99.90;;;;;;5136453;27;20588;-69
2023/10/15 03:44:10;;;;;;;11.67;7.87;;;4.70;99.90;;;;;;5136366;27;20193;-69
2023/10/15 03:46:38;;;;;;;12.37;7.43;;;4.70;99.90;;;;;;5136206;27;20285;-69
2023/10/15 03:49:07;;;;;;;15.83;7.60;;;4.80;99.90;;;;;;5134690;27;20228;-68
2023/10/15 03:51:40;;;;;;;10.57;6.90;;;4.80;99.90;;;;;;5136181;27;20222;-71
2023/10/15 03:54:08;;;;;;;13.93;7.50;;;4.80;99.90;;;;;;5136052;27;20226;-68
2023/10/15 03:56:35;;;;;;;13.80;7.07;;;4.80;99.90;;;;;;5136112;27;20206;-68
2023/10/15 03:59:02;;;;;;;14.57;6.67;;;4.80;99.90;;;;;;5136209;27;20206;-68
2023/10/15 04:01:30;;;;;;;12.67;7.10;;;4.80;99.90;;;;;;5135855;27;20206;-69
2023/10/15 04:04:01;;;;;;;11.63;6.70;;;4.70;99.90;;;;;;5135910;27;20305;-69
2023/10/15 04:06:29;;;;;;;10.80;7.00;;;4.70;99.90;;;;;;5136098;27;20194;-69
2023/10/15 04:09:09;;;;;;;14.13;7.10;;;4.80;99.90;;;;;;5136056;27;20223;-69
2023/10/15 04:11:43;;;;;;;15.33;7.00;;;4.90;99.90;;;;;;5135747;27;20214;-69
2023/10/15 04:14:13;;;;;;;10.30;6.57;;;5.00;99.90;;;;;;5135735;27;20219;-69
2023/10/15 04:16:41;;;;;;;13.07;6.83;;;5.00;99.90;;;;;;5136042;27;20658;-69
2023/10/15 04:19:07;;;;;;;15.20;7.50;;;5.10;99.90;;;;;;5135802;27;20221;-69
2023/10/15 04:21:38;;;;;;;14.77;7.70;;;5.10;99.90;;;;;;5135600;27;20591;-68
2023/10/15 04:24:06;;;;;;;13.80;7.07;;;5.20;99.90;;;;;;5135708;27;20271;-68
2023/10/15 04:26:35;;;;;;;12.90;6.93;;;5.30;99.90;;;;;;5135254;27;20202;-69
2023/10/15 04:29:15;;;;;;;17.23;6.77;;;5.30;99.90;;;;;;5135459;27;20251;-69
2023/10/15 04:31:44;;;;;;;13.27;6.93;;;5.30;99.90;;;;;;5135285;27;20222;-68
2023/10/15 04:34:16;;;;;;;18.27;7.23;;;5.40;99.90;;;;;;5135039;27;20684;-69
2023/10/15 04:36:45;;;;;;;13.00;6.73;;;5.40;99.90;;;;;;5135150;27;20290;-69
2023/10/15 04:39:12;;;;;;;15.07;6.57;;;5.50;99.90;;;;;;5134859;27;20199;-68
2023/10/15 04:41:39;;;;;;;12.43;6.17;;;5.50;99.90;;;;;;5135159;27;20199;-69
2023/10/15 04:44:11;;;;;;;10.07;6.10;;;5.50;99.90;;;;;;5135198;27;20711;-69
2023/10/15 04:46:41;;;;;;;10.83;5.33;;;5.60;99.90;;;;;;5135048;27;20206;-69
2023/10/15 04:49:09;;;;;;;13.70;6.17;;;5.60;99.90;;;;;;5134654;27;20191;-68
2023/10/15 04:51:42;;;;;;;9.47;5.80;;;5.60;99.90;;;;;;5134715;27;20222;-69
2023/10/15 04:54:10;;;;;;;10.30;5.93;;;5.60;99.90;;;;;;5135051;27;20226;-69
2023/10/15 04:56:37;;;;;;;10.43;5.80;;;5.70;99.90;;;;;;5134764;27;20195;-69
2023/10/15 04:59:04;;;;;;;10.50;5.33;;;5.80;99.90;;;;;;5134890;27;20222;-69
2023/10/15 05:01:33;;;;;;;10.07;5.60;;;5.70;99.90;;;;;;5134647;27;20294;-70
2023/10/15 05:04:01;;;;;;;12.30;6.03;;;5.80;99.90;;;;;;5134753;27;20195;-70
2023/10/15 05:06:28;;;;;;;11.93;5.43;;;5.70;99.90;;;;;;5135021;27;20289;-70
2023/10/15 05:08:55;;;;;;;9.47;4.97;;;5.80;99.90;;;;;;5134851;27;20206;-68
2023/10/15 05:11:23;;;;;;;10.87;5.70;;;5.90;99.90;;;;;;5134706;27;20274;-69
2023/10/15 05:13:50;;;;;;;12.37;5.70;;;5.90;99.90;;;;;;5134989;27;20222;-70
2023/10/15 05:16:18;;;;;;;9.07;5.47;;;6.00;99.90;;;;;;5134442;27;20198;-70
2023/10/15 05:18:47;;;;;;;7.20;4.90;;;6.00;99.90;;;;;;5134465;27;20199;-69
2023/10/15 05:21:14;;;;;;;8.13;5.07;;;6.00;99.90;;;;;;5134550;27;20202;-70
2023/10/15 05:23:40;;;;;;;16.20;5.37;;;5.90;99.90;;;;;;5134617;27;20199;-68
2023/10/15 05:26:07;;;;;;;9.47;5.27;;;5.90;99.90;;;;;;5134460;27;20201;-69
2023/10/15 05:28:35;;;;;;;9.37;5.67;;;5.80;99.90;;;;;;5134400;27;20195;-69
2023/10/15 05:31:02;;;;;;;11.77;5.27;;;5.80;99.90;;;;;;5134134;27;20199;-69
2023/10/15 05:33:29;;;;;;;10.80;5.10;;;5.90;99.90;;;;;;5133871;27;20234;-69
2023/10/15 05:35:57;;;;;;;9.97;5.17;;;5.90;99.90;;;;;;5134224;27;20191;-69
2023/10/15 05:38:25;;;;;;;11.13;5.20;;;5.90;99.90;;;;;;5134241;27;20237;-69
2023/10/15 05:40:58;;;;;;;9.83;5.23;;;5.90;99.90;;;;;;5134299;27;20209;-69
2023/10/15 05:43:25;;;;;;;13.30;5.57;;;6.00;99.90;;;;;;5134052;27;20207;-69
2023/10/15 05:45:53;;;;;;;11.90;5.10;;;6.00;99.90;;;;;;5133955;27;20198;-68
2023/10/15 05:48:20;;;;;;;11.43;5.17;;;6.00;99.90;;;;;;5134287;27;20530;-69
2023/10/15 05:50:49;;;;;;;13.73;5.17;;;6.00;99.90;;;;;;5134080;27;20251;-70
2023/10/15 05:53:16;;;;;;;10.80;5.50;;;6.00;99.90;;;;;;5133779;27;20704;-69
2023/10/15 05:55:42;;;;;;;8.80;5.20;;;6.00;99.90;;;;;;5133858;27;20218;-69
2023/10/15 05:58:09;;;;;;;12.20;4.80;;;6.00;99.90;;;;;;5133795;27;20195;-67
2023/10/15 06:00:39;;;;;;;11.07;5.53;;;6.10;99.90;;;;;;5133682;27;20194;-69
2023/10/15 06:03:08;;;;;;;12.03;5.33;;;6.20;99.90;;;;;;5134518;27;20197;-68
2023/10/15 06:05:35;;;;;;;9.37;4.83;;;6.20;99.90;;;;;;5134288;27;20202;-68
2023/10/15 06:08:04;;;;;;;10.63;4.97;;;6.20;99.90;;;;;;5133680;27;20191;-68
2023/10/15 06:10:32;;;;;;;7.60;4.50;;;6.20;99.90;;;;;;5133618;27;20191;-68
2023/10/15 06:12:59;;;;;;;12.03;4.87;;;6.20;99.90;;;;;;5132716;27;20214;-68
2023/10/15 06:15:28;;;;;;;11.07;4.77;;;6.30;99.90;;;;;;5133825;28;20246;-69
2023/10/15 06:17:55;;;;;;;12.87;4.83;;;6.40;99.90;;;;;;5133389;28;20695;-69
2023/10/15 06:20:24;;;;;;;6.37;4.30;;;6.30;99.90;;;;;;5133434;28;20587;-69
2023/10/15 06:22:55;;;;;;;8.80;4.50;;;6.40;99.90;;;;;;5133581;28;20206;-69
2023/10/15 06:25:23;;;;;;;9.77;4.60;;;6.40;99.90;;;;;;5133200;28;20545;-69
2023/10/15 06:27:50;;;;;;;12.93;4.80;;;6.40;99.90;;;;;;5133417;28;20677;-69
2023/10/15 06:30:17;;;;;;;9.90;4.77;;;6.50;99.90;;;;;;5133655;28;20203;-69
2023/10/15 06:32:44;;;;;;;11.13;4.50;;;6.50;99.90;;;;;;5133340;27;20219;-70
2023/10/15 06:35:14;;;;;;;8.90;4.90;;;6.50;99.90;;;;;;5133515;28;20199;-69
2023/10/15 06:37:42;;;;;;;7.13;4.87;;;6.60;99.90;;;;;;5133538;28;20220;-69
2023/10/15 06:40:10;;;;;;;10.27;4.43;;;6.60;99.90;;;;;;5133281;28;20199;-68
2023/10/15 06:42:37;;;;;;;13.07;4.63;;;6.60;99.90;;;;;;5133604;28;20195;-69
2023/10/15 06:45:06;;;;;;;8.67;4.30;;;6.60;99.90;;;;;;5133321;28;20199;-69
2023/10/15 06:47:33;;;;;;;8.40;4.33;;;6.70;99.90;;;;;;5133353;28;20229;-69
2023/10/15 06:49:59;;;;;;;6.37;3.97;;;6.70;99.90;;;;;;5133262;28;20244;-69
2023/10/15 06:52:26;;;;;;;7.07;3.93;;;6.80;99.90;;;;;;5133032;28;20260;-69
2023/10/15 06:54:54;;;;;;;8.17;4.30;;;6.80;99.90;;;;;;5133299;28;20199;-67
2023/10/15 06:57:20;;;;;;;7.40;4.50;;;6.90;99.90;;;;;;5133140;28;20199;-69
2023/10/15 06:59:50;;;;;;;9.40;4.93;;;6.90;99.90;;;;;;5133204;28;20191;-70
2023/10/15 07:02:16;;;;;;;10.07;4.73;;;7.00;99.90;;;;;;5133015;28;20554;-69
2023/10/15 07:04:43;;;;;;;6.77;4.37;;;7.10;99.90;;;;;;5133110;28;20237;-69
2023/10/15 07:07:09;;;;;;;6.50;4.37;;;7.20;99.90;;;;;;5133241;28;20243;-69
2023/10/15 07:09:37;;;;;;;8.27;4.67;;;7.40;99.90;;;;;;5133401;28;20253;-69
2023/10/15 07:12:06;;;;;;;10.33;4.93;;;7.40;99.90;;;;;;5133357;28;20285;-69
2023/10/15 07:14:32;;;;;;;13.97;4.63;;;7.40;99.90;;;;;;5133305;28;20200;-69
2023/10/15 07:16:59;;;;;;;8.90;4.40;;;7.50;99.90;;;;;;5133209;28;20224;-69
2023/10/15 07:19:26;;;;;;;7.63;4.10;;;7.50;99.90;;;;;;5133172;28;20200;-68
2023/10/15 07:21:53;;;;;;;9.57;4.67;;;7.40;99.90;;;;;;5133070;28;20199;-69
2023/10/15 07:24:22;;;;;;;5.73;3.90;;;7.50;99.90;;;;;;5135892;27;20206;-68
2023/10/15 07:26:49;;;;;;;11.53;4.73;;;7.50;99.90;;;;;;5121009;27;20195;-69
2023/10/15 07:29:18;;;;;;;9.83;4.37;;;7.60;99.90;;;;;;5116018;27;20263;-69
2023/10/15 07:31:45;;;;;;;7.60;4.10;;;7.50;99.90;;;;;;5116022;28;20197;-70
2023/10/15 07:34:12;;;;;;;6.80;3.90;;;7.60;99.90;;;;;;5115821;28;20246;-69
2023/10/15 07:36:38;;;;;;;7.77;3.90;;;7.70;99.90;;;;;;5116110;28;20200;-70
2023/10/15 07:39:06;;;;;;;13.03;4.50;;;7.90;99.90;;;;;;5115961;28;20658;-70
2023/10/15 07:41:33;;;;;;;9.00;4.73;;;8.10;99.90;;;;;;5116033;28;20199;-70
2023/10/15 07:44:01;;;;;;;8.83;4.20;;;8.30;99.90;;;;;;5116006;28;20204;-70
2023/10/15 07:46:29;;;;;;;8.27;4.40;;;8.40;99.90;;;;;;5115789;28;20199;-70
2023/10/15 07:48:56;;;;;;;10.73;4.37;;;8.60;99.90;;;;;;5115683;28;20253;-70
2023/10/15 07:51:23;;;;;;;9.50;3.97;;;8.70;99.90;;;;;;5115794;28;20227;-70
2023/10/15 07:53:50;;;;;;;5.90;3.90;;;8.80;99.90;;;;;;5115505;28;20269;-71
2023/10/15 07:56:16;;;;;;;7.43;4.07;;;9.00;99.90;;;;;;5115601;28;20203;-70
2023/10/15 07:58:43;;;;;;;10.43;4.07;;;9.10;99.90;;;;;;5115704;27;20564;-72
2023/10/15 08:01:11;;;;;;;9.13;4.10;;;9.10;99.90;;;;;;5115543;28;20246;-70
2023/10/15 08:03:39;;;;;;;7.17;4.90;;;9.10;99.90;;;;;;5115715;28;20196;-70
2023/10/15 08:06:07;;;;;;;9.03;3.87;;;9.10;99.90;;;;;;5115434;28;20203;-70
2023/10/15 08:08:34;;;;;;;7.93;4.10;;;9.20;99.90;;;;;;5115402;28;20249;-70
2023/10/15 08:11:01;;;;;;;8.10;4.17;;;9.20;99.90;;;;;;5115380;28;20199;-70
2023/10/15 08:13:28;;;;;;;8.30;4.33;;;9.30;99.90;;;;;;5115093;28;20629;-70
2023/10/15 08:15:55;;;;;;;8.83;4.10;;;9.40;99.90;;;;;;5118465;27;20899;-70
2023/10/15 08:18:22;;;;;;;8.53;4.17;;;9.30;99.90;;;;;;5130043;27;20240;-69
2023/10/15 08:20:49;;;;;;;9.33;4.10;;;9.30;99.90;;;;;;5135243;27;20187;-68
2023/10/15 08:23:16;;;;;;;10.50;3.87;;;9.40;99.90;;;;;;5135416;27;20199;-69
2023/10/15 08:25:43;;;;;;;9.87;3.80;;;9.50;99.90;;;;;;5126252;27;20196;-70
2023/10/15 08:28:10;;;;;;;8.33;3.97;;;9.40;99.90;;;;;;5114477;28;20195;-70
2023/10/15 08:30:38;;;;;;;5.90;3.77;;;9.40;99.90;;;;;;5114573;27;20188;-70
2023/10/15 08:33:10;;;;;;;9.63;3.83;;;9.60;99.90;;;;;;5114289;28;20227;-68
2023/10/15 08:35:37;;;;;;;8.40;3.90;;;9.70;99.90;;;;;;5121379;27;20198;-70
2023/10/15 08:38:07;;;;;;;7.80;4.00;;;9.40;99.90;;;;;;5135141;27;20642;-70
2023/10/15 08:40:39;;;;;;;8.37;3.90;;;9.70;99.90;;;;;;5134529;27;20243;-70
2023/10/15 08:43:13;;;;;;;11.57;4.60;;;10.30;99.90;;;;;;5134917;27;20210;-71
2023/10/15 08:45:42;;;;;;;6.97;3.90;;;10.60;99.90;;;;;;5134874;27;20193;-70
2023/10/15 08:48:12;;;;;;;6.73;4.07;;;10.40;99.90;;;;;;5135075;27;20252;-69
2023/10/15 08:50:40;;;;;;;5.93;3.43;;;10.40;99.90;;;;;;5134535;27;20191;-70
2023/10/15 08:53:09;;;;;;;5.33;3.40;;;10.60;99.90;;;;;;5134521;27;20611;-69
2023/10/15 08:55:37;;;;;;;7.27;3.90;;;10.50;99.90;;;;;;5133724;27;20635;-69
2023/10/15 08:58:06;;;;;;;8.07;3.63;;;10.20;99.90;;;;;;5113750;27;20223;-70
2023/10/15 09:00:36;;;;;;;8.97;3.33;;;10.40;99.90;;;;;;5125621;27;20187;-80
2023/10/15 09:03:04;;;;;;;7.73;3.47;;;10.40;99.90;;;;;;5134791;27;20286;-70
2023/10/15 09:05:33;;;;;;;7.73;3.47;;;9.80;99.90;;;;;;5134175;27;20187;-71
2023/10/15 09:08:07;;;;;;;8.97;3.73;;;9.70;99.90;;;;;;5134302;27;20191;-70
2023/10/15 09:10:40;;;;;;;10.37;3.40;;;9.90;99.90;;;;;;5134240;27;20190;-70
2023/10/15 09:13:14;;;;;;;6.63;3.20;;;10.00;99.90;;;;;;5134387;27;20219;-70
2023/10/15 09:15:43;;;;;;;6.83;3.17;;;10.00;99.90;;;;;;5134034;27;20202;-68
2023/10/15 09:18:11;;;;;;;5.57;3.13;;;10.10;99.90;;;;;;5134134;27;20707;-69
2023/10/15 09:20:42;;;;;;;5.77;3.00;;;10.00;99.90;;;;;;5133749;27;20191;-70
2023/10/15 09:23:09;;;;;;;5.33;2.77;;;10.20;99.90;;;;;;5134470;27;20252;-69
2023/10/15 09:25:38;;;;;;;7.23;3.13;;;10.50;99.90;;;;;;5133915;27;20251;-69
2023/10/15 09:28:05;;;;;;;6.23;3.47;;;10.30;99.90;;;;;;5133908;27;20263;-70
2023/10/15 09:30:32;;;;;;;5.63;2.63;;;10.30;99.90;;;;;;5130383;27;20206;-68
2023/10/15 09:32:59;;;;;;;9.20;3.30;;;10.00;99.90;;;;;;5130309;27;20215;-68
2023/10/15 09:35:26;;;;;;;6.83;3.10;;;9.90;99.90;;;;;;5130563;27;20202;-68
2023/10/15 09:37:54;;;;;;;6.80;2.80;;;9.90;99.90;;;;;;5130905;27;20203;-69
2023/10/15 09:40:23;;;;;;;4.97;2.20;;;10.20;99.90;;;;;;5130865;27;20289;-68
2023/10/15 09:42:53;;;;;;;6.07;3.70;;;10.20;99.90;;;;;;5130617;27;20607;-69
2023/10/15 09:45:23;;;;;;;7.00;3.73;;;9.90;99.90;;;;;;5130521;27;20195;-68
2023/10/15 09:47:52;;;;;;;7.80;4.03;;;9.60;99.90;;;;;;5130657;27;20226;-68
2023/10/15 09:50:24;;;;;;;8.40;3.40;;;9.70;99.90;;;;;;5130369;27;20187;-68
2023/10/15 09:52:56;;;;;;;8.17;3.10;;;10.30;99.90;;;;;;5130332;27;20195;-69
2023/10/15 09:55:24;;;;;;;8.23;4.77;;;11.40;99.90;;;;;;5130494;27;20221;-69
2023/10/15 09:57:55;;;;;;;5.73;3.37;;;12.20;99.90;;;;;;5129747;27;20294;-69
2023/10/15 10:00:32;;;;;;;5.85;2.53;;;12.90;99.90;;;;;;5130402;27;20628;-69
2023/10/15 10:03:13;;;;;;;11.18;6.07;;;13.60;99.90;;;;;;5130446;27;20203;-69
2023/10/15 10:05:50;;;;;;;7.10;3.88;;;14.00;99.90;;;;;;5129153;27;20282;-69
2023/10/15 10:08:29;;;;;;;6.63;4.47;;;13.90;99.90;;;;;;5130371;27;20259;-69
2023/10/15 10:11:10;;;;;;;6.22;3.17;;;13.10;99.90;;;;;;5130108;27;20215;-69
2023/10/15 10:14:02;;;;;;;3.42;2.05;;;13.10;99.90;;;;;;5130229;27;20682;-69
2023/10/15 10:16:30;;;;;;;7.30;2.40;;;14.20;99.90;;;;;;5130251;28;20214;-68
2023/10/15 10:18:57;;;;;;;4.45;2.53;;;14.00;96.20;;;;;;5130023;28;20202;-70
2023/10/15 10:21:29;;;;;;;5.93;2.53;;;14.90;96.80;;;;;;5130382;28;20198;-69
2023/10/15 10:23:58;;;;;;;9.48;2.28;;;15.50;95.00;;;;;;5130288;28;20206;-69
2023/10/15 10:26:28;;;;;;;4.60;1.55;;;15.10;93.10;;;;;;5130326;28;20256;-69
2023/10/15 10:28:59;;;;;;;4.35;1.83;;;14.80;93.50;;;;;;5130320;28;20576;-69
2023/10/15 10:31:29;;;;;;;5.72;1.98;;;15.40;92.20;;;;;;5130970;28;20199;-70
2023/10/15 10:34:01;;;;;;;4.47;1.88;;;15.50;91.90;;;;;;5129533;28;20992;-70
2023/10/15 10:36:30;;;;;;;8.55;2.60;;;13.40;93.00;;;;;;5130146;28;20282;-69
2023/10/15 10:38:59;;;;;;;8.20;3.88;;;14.60;93.20;;;;;;5130163;28;20202;-69
2023/10/15 10:41:36;;;;;;;12.18;7.63;;;15.80;91.40;;;;;;5130171;28;20211;-70
2023/10/15 10:44:05;;;;;;;5.30;3.53;;;16.50;90.30;;;;;;5130194;28;20206;-70
2023/10/15 10:46:41;;;;;;;5.72;2.90;;;16.60;89.20;;;;;;5129803;28;20203;-70
2023/10/15 10:49:13;;;;;;;8.02;3.38;;;15.70;86.20;;;;;;5130344;28;20587;-72
2023/10/15 10:51:40;;;;;;;5.88;2.33;;;14.00;86.50;;;;;;5129901;28;20203;-71
2023/10/15 10:54:26;;;;;;;8.02;4.40;;;13.00;88.40;;;;;;5129799;28;20215;-69
2023/10/15 10:56:56;;;;;;;4.00;1.67;;;13.00;89.10;;;;;;5130129;28;20320;-72
2023/10/15 10:59:24;;;;;;;5.80;4.03;;;12.50;88.50;;;;;;5132735;27;20223;-69
2023/10/15 11:01:51;;;;;;;5.47;2.50;;;11.90;88.30;;;;;;5136322;27;20263;-72
2023/10/15 11:04:18;;;;;;;5.40;2.40;;;11.50;91.20;;;;;;5137284;27;20286;-72
2023/10/15 11:06:46;;;;;;;8.73;2.80;;;11.00;97.40;;;;;;5137202;27;20195;-72
2023/10/15 11:09:15;;;;;;;9.40;2.53;;;8.70;99.90;;;;;;5137166;27;20546;-72
2023/10/15 11:11:42;;;;;;;2.43;1.90;;;7.70;99.90;;;;;;5137106;27;20680;-73
2023/10/15 11:14:12;;;;;;;7.20;3.93;;;7.80;99.90;;;;;;5137033;27;20621;-74
2023/10/15 11:16:41;;;;;;;6.63;2.83;;;7.60;99.90;;;;;;5137095;27;20210;-72
2023/10/15 11:19:15;;;;;;;3.67;2.07;;;7.30;99.90;;;;;;5136852;27;20256;-70
2023/10/15 11:21:42;;;;;;;2.63;1.83;;;6.50;99.90;;;;;;5137066;27;20715;-72
2023/10/15 11:24:09;;;;;;;8.17;3.73;;;5.80;99.90;;;;;;5136792;27;20290;-72
2023/10/15 11:26:37;;;;;;;5.17;2.60;;;5.60;99.90;;;;;;5137012;27;20274;-73
2023/10/15 11:29:04;;;;;;;3.63;2.50;;;5.80;99.90;;;;;;5136658;27;20195;-73
2023/10/15 11:31:31;;;;;;;3.20;1.57;;;5.80;99.90;;;;;;5136870;27;20191;-75
2023/10/15 11:33:59;;;;;;;3.17;2.40;;;5.90;99.90;;;;;;5137051;27;20256;-75
2023/10/15 11:36:27;;;;;;;2.30;1.57;;;5.80;99.90;;;;;;5136841;27;20231;-74
2023/10/15 11:38:54;;;;;;;3.60;1.77;;;5.90;99.90;;;;;;5136773;27;20202;-74
2023/10/15 11:41:22;;;;;;;3.50;2.00;;;5.80;99.90;;;;;;5136360;27;20240;-71
2023/10/15 11:43:50;;;;;;;4.00;2.70;;;5.80;99.90;;;;;;5136293;27;20203;-72
2023/10/15 11:46:23;;;;;;;2.93;1.97;;;5.90;99.90;;;;;;5136371;27;20289;-72
2023/10/15 11:48:51;;;;;;;2.77;1.47;;;6.50;99.90;;;;;;5136459;27;20654;-76
2023/10/15 11:51:19;;;;;;;2.73;1.67;;;9.90;99.90;;;;;;5136471;27;20256;-73
2023/10/15 11:53:47;;;;;;;2.00;1.30;;;12.60;99.90;;;;;;5136477;27;20239;-75
2023/10/15 11:56:16;;;;;;;2.43;1.37;;;13.70;99.90;;;;;;5135515;27;20247;-74
2023/10/15 11:58:45;;;;;;;3.60;1.90;;;14.60;99.90;;;;;;5136260;27;20195;-74
2023/10/15 12:01:14;;;;;;;4.18;2.72;;;16.10;99.90;;;;;;5136259;27;20195;-74
2023/10/15 12:03:41;;;;;;;3.00;2.05;;;17.10;99.90;;;;;;5136296;27;20286;-72
2023/10/15 12:06:08;;;;;;;2.60;1.42;;;18.50;99.90;;;;;;5136153;27;20199;-73
2023/10/15 12:08:36;;;;;;;2.47;1.30;;;16.80;99.90;;;;;;5135931;27;20648;-73
2023/10/15 12:11:04;;;;;;;1.83;1.23;;;14.70;99.90;;;;;;5135001;27;20244;-75
2023/10/15 12:13:31;;;;;;;3.38;1.38;;;16.00;99.90;;;;;;5135847;27;20237;-74
2023/10/15 12:15:57;;;;;;;3.70;1.55;;;17.90;99.90;;;;;;5136062;27;20195;-74
2023/10/15 12:18:24;;;;;;;3.47;1.50;;;18.50;99.90;;;;;;5136015;27;20198;-73
2023/10/15 12:20:51;;;;;;;2.47;1.30;;;15.30;99.90;;;;;;5136022;27;20254;-73
2023/10/15 12:23:19;;;;;;;2.67;1.65;;;13.60;99.90;;;;;;5136147;27;20202;-73
2023/10/15 12:25:47;;;;;;;2.83;1.20;;;15.40;99.90;;;;;;5135651;27;20224;-73
2023/10/15 12:28:15;;;;;;;3.88;1.35;;;16.40;98.60;;;;;;5135937;27;20238;-73
2023/10/15 12:30:41;;;;;;;2.97;1.40;;;17.20;97.00;;;;;;5135665;27;20900;-73
2023/10/15 12:33:08;;;;;;;4.40;2.08;;;17.50;95.30;;;;;;5135577;27;20226;-73
2023/10/15 12:35:35;;;;;;;2.70;1.48;;;18.30;94.20;;;;;;5135623;27;20219;-72
2023/10/15 12:38:02;;;;;;;3.50;1.35;;;13.60;94.80;;;;;;5135212;27;20199;-71
2023/10/15 12:40:31;;;;;;;3.33;1.50;;;12.50;97.00;;;;;;5135557;27;20741;-71
2023/10/15 12:43:00;;;;;;;2.37;1.57;;;12.00;98.20;;;;;;5135239;27;20198;-72
2023/10/15 12:45:27;;;;;;;3.27;1.50;;;14.30;94.30;;;;;;5135401;27;20207;-71
2023/10/15 12:47:54;;;;;;;3.83;1.37;;;13.30;95.60;;;;;;5135071;27;20203;-71
2023/10/15 12:50:20;;;;;;;4.70;1.87;;;12.20;96.90;;;;;;5135270;27;20594;-71
2023/10/15 12:52:48;;;;;;;2.37;1.37;;;11.80;97.40;;;;;;5135122;27;20614;-69
2023/10/15 12:55:17;;;;;;;4.70;1.50;;;11.10;98.40;;;;;;5135035;27;20233;-70
2023/10/15 12:57:43;;;;;;;3.77;1.40;;;12.80;97.90;;;;;;5135099;27;20252;-70
2023/10/15 13:00:17;;;;;;;3.00;1.60;;;15.50;94.50;;;;;;5135148;27;20228;-70